sensor_id;sensor_type;location;lat;lon;timestamp;P1;durP1;ratioP1;P2;durP2;ratioP2
67500;SDS011;54349;52.528;19.760;2022-07-29T00:01:19;2.30;;;1.50;;
67500;SDS011;54349;52.528;19.760;2022-07-29T00:03:47;3.50;;;1.60;;
67500;SDS011;54349;52.528;19.760;2022-07-29T00:06:16;2.50;;;1.40;;
67500;SDS011;54349;52.528;19.760;2022-07-29T00:08:45;2.50;;;1.70;;
67500;SDS011;54349;52.528;19.760;2022-07-29T00:11:13;2.20;;;1.50;;
67500;SDS011;54349;52.528;19.760;2022-07-29T00:13:41;2.50;;;1.50;;
67500;SDS011;54349;52.528;19.760;2022-07-29T00:16:15;2.20;;;1.50;;
67500;SDS011;54349;52.528;19.760;2022-07-29T00:18:43;3.90;;;1.70;;
67500;SDS011;54349;52.528;19.760;2022-07-29T00:21:12;2.50;;;1.50;;
67500;SDS011;54349;52.528;19.760;2022-07-29T00:23:40;2.10;;;1.60;;
67500;SDS011;54349;52.528;19.760;2022-07-29T00:26:08;2.90;;;1.60;;
67500;SDS011;54349;52.528;19.760;2022-07-29T00:28:36;1.90;;;1.40;;
67500;SDS011;54349;52.528;19.760;2022-07-29T00:31:04;2.60;;;1.60;;
67500;SDS011;54349;52.528;19.760;2022-07-29T00:33:33;2.80;;;1.40;;
67500;SDS011;54349;52.528;19.760;2022-07-29T00:36:01;3.10;;;1.70;;
67500;SDS011;54349;52.528;19.760;2022-07-29T00:38:29;2.40;;;1.60;;
67500;SDS011;54349;52.528;19.760;2022-07-29T00:40:58;2.30;;;1.70;;
67500;SDS011;54349;52.528;19.760;2022-07-29T00:43:26;2.20;;;1.40;;
67500;SDS011;54349;52.528;19.760;2022-07-29T00:45:54;2.80;;;1.60;;
67500;SDS011;54349;52.528;19.760;2022-07-29T00:48:23;2.30;;;1.40;;
67500;SDS011;54349;52.528;19.760;2022-07-29T00:50:51;2.40;;;1.70;;
67500;SDS011;54349;52.528;19.760;2022-07-29T00:53:19;2.20;;;1.40;;
67500;SDS011;54349;52.528;19.760;2022-07-29T00:55:48;2.20;;;1.50;;
67500;SDS011;54349;52.528;19.760;2022-07-29T00:58:21;1.70;;;1.40;;
67500;SDS011;54349;52.528;19.760;2022-07-29T01:00:50;2.30;;;1.60;;
67500;SDS011;54349;52.528;19.760;2022-07-29T01:03:20;1.50;;;1.30;;
67500;SDS011;54349;52.528;19.760;2022-07-29T01:05:48;1.40;;;1.30;;
67500;SDS011;54349;52.528;19.760;2022-07-29T01:08:18;2.30;;;1.60;;
67500;SDS011;54349;52.528;19.760;2022-07-29T01:10:49;1.70;;;1.40;;
67500;SDS011;54349;52.528;19.760;2022-07-29T01:13:19;2.30;;;1.50;;
67500;SDS011;54349;52.528;19.760;2022-07-29T01:15:54;3.30;;;1.50;;
67500;SDS011;54349;52.528;19.760;2022-07-29T01:18:34;1.90;;;1.30;;
67500;SDS011;54349;52.528;19.760;2022-07-29T01:24:14;2.00;;;1.40;;
67500;SDS011;54349;52.528;19.760;2022-07-29T01:30:11;2.10;;;1.40;;
67500;SDS011;54349;52.528;19.760;2022-07-29T01:32:47;2.10;;;1.50;;
67500;SDS011;54349;52.528;19.760;2022-07-29T01:35:28;1.40;;;1.30;;
67500;SDS011;54349;52.528;19.760;2022-07-29T01:38:24;2.50;;;1.40;;
67500;SDS011;54349;52.528;19.760;2022-07-29T01:41:04;2.50;;;1.30;;
67500;SDS011;54349;52.528;19.760;2022-07-29T01:43:46;2.20;;;1.50;;
67500;SDS011;54349;52.528;19.760;2022-07-29T01:46:31;1.90;;;1.30;;
67500;SDS011;54349;52.528;19.760;2022-07-29T01:49:09;2.20;;;1.40;;
67500;SDS011;54349;52.528;19.760;2022-07-29T01:51:59;2.00;;;1.50;;
67500;SDS011;54349;52.528;19.760;2022-07-29T01:54:41;2.00;;;1.40;;
67500;SDS011;54349;52.528;19.760;2022-07-29T01:57:15;2.00;;;1.40;;
67500;SDS011;54349;52.528;19.760;2022-07-29T01:59:47;1.60;;;1.20;;
67500;SDS011;54349;52.528;19.760;2022-07-29T02:02:18;1.70;;;1.30;;
67500;SDS011;54349;52.528;19.760;2022-07-29T02:04:49;2.20;;;1.30;;
67500;SDS011;54349;52.528;19.760;2022-07-29T02:07:21;1.50;;;1.40;;
67500;SDS011;54349;52.528;19.760;2022-07-29T02:09:52;2.50;;;1.30;;
67500;SDS011;54349;52.528;19.760;2022-07-29T02:12:23;1.90;;;1.40;;
67500;SDS011;54349;52.528;19.760;2022-07-29T02:14:54;1.60;;;1.40;;
67500;SDS011;54349;52.528;19.760;2022-07-29T02:17:29;1.50;;;1.30;;
67500;SDS011;54349;52.528;19.760;2022-07-29T02:20:06;1.30;;;1.20;;
67500;SDS011;54349;52.528;19.760;2022-07-29T02:22:38;1.40;;;1.20;;
67500;SDS011;54349;52.528;19.760;2022-07-29T02:25:09;1.70;;;1.30;;
67500;SDS011;54349;52.528;19.760;2022-07-29T02:27:41;1.60;;;1.50;;
67500;SDS011;54349;52.528;19.760;2022-07-29T02:30:11;2.20;;;1.30;;
67500;SDS011;54349;52.528;19.760;2022-07-29T02:32:41;2.50;;;1.30;;
67500;SDS011;54349;52.528;19.760;2022-07-29T02:35:15;2.70;;;1.40;;
67500;SDS011;54349;52.528;19.760;2022-07-29T02:37:45;1.40;;;1.30;;
67500;SDS011;54349;52.528;19.760;2022-07-29T02:40:37;1.50;;;1.40;;
67500;SDS011;54349;52.528;19.760;2022-07-29T02:43:08;1.90;;;1.30;;
67500;SDS011;54349;52.528;19.760;2022-07-29T02:45:38;2.80;;;1.30;;
67500;SDS011;54349;52.528;19.760;2022-07-29T02:48:13;1.70;;;1.40;;
67500;SDS011;54349;52.528;19.760;2022-07-29T02:50:51;1.90;;;1.30;;
67500;SDS011;54349;52.528;19.760;2022-07-29T02:53:29;1.10;;;1.00;;
67500;SDS011;54349;52.528;19.760;2022-07-29T02:56:07;2.80;;;1.20;;
67500;SDS011;54349;52.528;19.760;2022-07-29T02:58:49;1.30;;;1.20;;
67500;SDS011;54349;52.528;19.760;2022-07-29T03:01:28;1.90;;;1.40;;
67500;SDS011;54349;52.528;19.760;2022-07-29T03:04:02;2.10;;;1.50;;
67500;SDS011;54349;52.528;19.760;2022-07-29T03:06:33;1.80;;;1.30;;
67500;SDS011;54349;52.528;19.760;2022-07-29T03:09:10;1.60;;;1.30;;
67500;SDS011;54349;52.528;19.760;2022-07-29T03:11:41;1.40;;;1.30;;
67500;SDS011;54349;52.528;19.760;2022-07-29T03:14:18;1.30;;;1.20;;
67500;SDS011;54349;52.528;19.760;2022-07-29T03:16:49;1.30;;;1.10;;
67500;SDS011;54349;52.528;19.760;2022-07-29T03:19:19;2.10;;;1.30;;
67500;SDS011;54349;52.528;19.760;2022-07-29T03:21:48;2.50;;;1.30;;
67500;SDS011;54349;52.528;19.760;2022-07-29T03:24:28;2.00;;;1.20;;
67500;SDS011;54349;52.528;19.760;2022-07-29T03:26:59;1.90;;;1.20;;
67500;SDS011;54349;52.528;19.760;2022-07-29T03:29:29;3.30;;;1.40;;
67500;SDS011;54349;52.528;19.760;2022-07-29T03:32:05;2.90;;;1.30;;
67500;SDS011;54349;52.528;19.760;2022-07-29T03:37:06;1.60;;;1.20;;
67500;SDS011;54349;52.528;19.760;2022-07-29T03:39:38;1.60;;;1.30;;
67500;SDS011;54349;52.528;19.760;2022-07-29T03:42:12;1.40;;;1.30;;
67500;SDS011;54349;52.528;19.760;2022-07-29T03:44:44;1.40;;;1.30;;
67500;SDS011;54349;52.528;19.760;2022-07-29T03:47:16;2.30;;;1.20;;
67500;SDS011;54349;52.528;19.760;2022-07-29T03:49:50;1.10;;;1.00;;
67500;SDS011;54349;52.528;19.760;2022-07-29T03:52:22;1.40;;;1.30;;
67500;SDS011;54349;52.528;19.760;2022-07-29T03:54:50;2.10;;;1.30;;
67500;SDS011;54349;52.528;19.760;2022-07-29T03:57:23;2.90;;;1.30;;
67500;SDS011;54349;52.528;19.760;2022-07-29T03:59:54;1.80;;;1.20;;
67500;SDS011;54349;52.528;19.760;2022-07-29T04:02:24;1.90;;;1.30;;
67500;SDS011;54349;52.528;19.760;2022-07-29T04:04:57;2.10;;;1.30;;
67500;SDS011;54349;52.528;19.760;2022-07-29T04:07:26;2.10;;;1.50;;
67500;SDS011;54349;52.528;19.760;2022-07-29T04:09:54;2.10;;;1.20;;
67500;SDS011;54349;52.528;19.760;2022-07-29T04:12:22;1.80;;;1.30;;
67500;SDS011;54349;52.528;19.760;2022-07-29T04:14:50;1.80;;;1.30;;
67500;SDS011;54349;52.528;19.760;2022-07-29T04:17:18;2.40;;;1.30;;
67500;SDS011;54349;52.528;19.760;2022-07-29T04:19:46;1.20;;;1.10;;
67500;SDS011;54349;52.528;19.760;2022-07-29T04:22:14;1.30;;;1.20;;
67500;SDS011;54349;52.528;19.760;2022-07-29T04:24:42;1.50;;;1.30;;
67500;SDS011;54349;52.528;19.760;2022-07-29T04:27:11;1.50;;;1.10;;
67500;SDS011;54349;52.528;19.760;2022-07-29T04:29:39;1.90;;;1.30;;
67500;SDS011;54349;52.528;19.760;2022-07-29T04:32:24;1.10;;;1.10;;
67500;SDS011;54349;52.528;19.760;2022-07-29T04:34:53;1.70;;;1.20;;
67500;SDS011;54349;52.528;19.760;2022-07-29T04:37:21;3.10;;;1.20;;
67500;SDS011;54349;52.528;19.760;2022-07-29T04:39:49;1.40;;;1.30;;
67500;SDS011;54349;52.528;19.760;2022-07-29T04:42:18;1.90;;;1.30;;
67500;SDS011;54349;52.528;19.760;2022-07-29T04:44:54;1.30;;;1.10;;
67500;SDS011;54349;52.528;19.760;2022-07-29T04:47:22;1.30;;;1.20;;
67500;SDS011;54349;52.528;19.760;2022-07-29T04:49:50;1.60;;;1.30;;
67500;SDS011;54349;52.528;19.760;2022-07-29T04:52:18;1.40;;;1.10;;
67500;SDS011;54349;52.528;19.760;2022-07-29T04:54:47;1.70;;;1.30;;
67500;SDS011;54349;52.528;19.760;2022-07-29T04:57:16;1.50;;;1.20;;
67500;SDS011;54349;52.528;19.760;2022-07-29T04:59:46;1.40;;;1.30;;
67500;SDS011;54349;52.528;19.760;2022-07-29T05:02:14;1.40;;;1.30;;
67500;SDS011;54349;52.528;19.760;2022-07-29T05:04:43;1.90;;;1.20;;
67500;SDS011;54349;52.528;19.760;2022-07-29T05:07:11;1.10;;;1.00;;
67500;SDS011;54349;52.528;19.760;2022-07-29T05:09:39;1.50;;;1.20;;
67500;SDS011;54349;52.528;19.760;2022-07-29T05:12:08;1.20;;;1.10;;
67500;SDS011;54349;52.528;19.760;2022-07-29T05:14:37;2.50;;;1.30;;
67500;SDS011;54349;52.528;19.760;2022-07-29T05:17:06;1.50;;;1.30;;
67500;SDS011;54349;52.528;19.760;2022-07-29T05:19:34;1.20;;;1.10;;
67500;SDS011;54349;52.528;19.760;2022-07-29T05:22:06;1.60;;;1.30;;
67500;SDS011;54349;52.528;19.760;2022-07-29T05:24:34;1.00;;;0.90;;
67500;SDS011;54349;52.528;19.760;2022-07-29T05:27:03;1.10;;;1.00;;
67500;SDS011;54349;52.528;19.760;2022-07-29T05:29:31;1.60;;;1.30;;
67500;SDS011;54349;52.528;19.760;2022-07-29T05:32:12;1.10;;;1.10;;
67500;SDS011;54349;52.528;19.760;2022-07-29T05:34:41;1.70;;;1.20;;
67500;SDS011;54349;52.528;19.760;2022-07-29T05:37:21;1.30;;;1.20;;
67500;SDS011;54349;52.528;19.760;2022-07-29T05:39:49;1.30;;;1.20;;
67500;SDS011;54349;52.528;19.760;2022-07-29T05:42:24;2.20;;;1.30;;
67500;SDS011;54349;52.528;19.760;2022-07-29T05:44:53;1.30;;;1.20;;
67500;SDS011;54349;52.528;19.760;2022-07-29T05:47:22;1.40;;;1.20;;
67500;SDS011;54349;52.528;19.760;2022-07-29T05:49:50;1.30;;;1.20;;
67500;SDS011;54349;52.528;19.760;2022-07-29T05:52:19;2.30;;;1.10;;
67500;SDS011;54349;52.528;19.760;2022-07-29T05:54:48;2.70;;;1.20;;
67500;SDS011;54349;52.528;19.760;2022-07-29T05:57:19;1.10;;;1.10;;
67500;SDS011;54349;52.528;19.760;2022-07-29T05:59:49;2.00;;;1.30;;
67500;SDS011;54349;52.528;19.760;2022-07-29T06:02:18;1.20;;;1.10;;
67500;SDS011;54349;52.528;19.760;2022-07-29T06:04:46;1.30;;;1.10;;
67500;SDS011;54349;52.528;19.760;2022-07-29T06:07:15;1.30;;;1.10;;
67500;SDS011;54349;52.528;19.760;2022-07-29T06:09:44;1.50;;;1.10;;
67500;SDS011;54349;52.528;19.760;2022-07-29T06:12:12;1.90;;;1.10;;
67500;SDS011;54349;52.528;19.760;2022-07-29T06:14:40;1.30;;;1.20;;
67500;SDS011;54349;52.528;19.760;2022-07-29T06:17:08;1.50;;;1.20;;
67500;SDS011;54349;52.528;19.760;2022-07-29T06:19:39;1.40;;;1.20;;
67500;SDS011;54349;52.528;19.760;2022-07-29T06:22:07;1.80;;;1.20;;
67500;SDS011;54349;52.528;19.760;2022-07-29T06:24:36;2.10;;;1.30;;
67500;SDS011;54349;52.528;19.760;2022-07-29T06:27:05;1.30;;;1.20;;
67500;SDS011;54349;52.528;19.760;2022-07-29T06:29:33;1.70;;;1.20;;
67500;SDS011;54349;52.528;19.760;2022-07-29T06:32:02;1.10;;;1.00;;
67500;SDS011;54349;52.528;19.760;2022-07-29T06:34:31;1.10;;;1.10;;
67500;SDS011;54349;52.528;19.760;2022-07-29T06:36:59;1.10;;;1.10;;
67500;SDS011;54349;52.528;19.760;2022-07-29T06:39:27;1.20;;;1.10;;
67500;SDS011;54349;52.528;19.760;2022-07-29T06:41:55;1.10;;;1.10;;
67500;SDS011;54349;52.528;19.760;2022-07-29T06:44:24;1.40;;;1.10;;
67500;SDS011;54349;52.528;19.760;2022-07-29T06:46:53;1.30;;;1.20;;
67500;SDS011;54349;52.528;19.760;2022-07-29T06:49:22;1.50;;;1.20;;
67500;SDS011;54349;52.528;19.760;2022-07-29T06:51:52;4.10;;;1.40;;
67500;SDS011;54349;52.528;19.760;2022-07-29T06:54:20;5.00;;;1.50;;
67500;SDS011;54349;52.528;19.760;2022-07-29T06:56:49;4.40;;;1.30;;
67500;SDS011;54349;52.528;19.760;2022-07-29T06:59:17;3.40;;;1.20;;
67500;SDS011;54349;52.528;19.760;2022-07-29T07:01:52;3.00;;;1.20;;
67500;SDS011;54349;52.528;19.760;2022-07-29T07:04:20;2.40;;;1.30;;
67500;SDS011;54349;52.528;19.760;2022-07-29T07:06:48;1.70;;;1.20;;
67500;SDS011;54349;52.528;19.760;2022-07-29T07:09:16;3.40;;;1.40;;
67500;SDS011;54349;52.528;19.760;2022-07-29T07:11:44;3.10;;;1.30;;
67500;SDS011;54349;52.528;19.760;2022-07-29T07:14:16;3.00;;;1.40;;
67500;SDS011;54349;52.528;19.760;2022-07-29T07:16:45;1.70;;;1.30;;
67500;SDS011;54349;52.528;19.760;2022-07-29T07:19:14;1.90;;;1.40;;
67500;SDS011;54349;52.528;19.760;2022-07-29T07:21:42;2.90;;;1.20;;
67500;SDS011;54349;52.528;19.760;2022-07-29T07:24:10;2.20;;;1.40;;
67500;SDS011;54349;52.528;19.760;2022-07-29T07:26:39;2.50;;;1.30;;
67500;SDS011;54349;52.528;19.760;2022-07-29T07:29:07;3.30;;;1.30;;
67500;SDS011;54349;52.528;19.760;2022-07-29T07:31:36;2.60;;;1.40;;
67500;SDS011;54349;52.528;19.760;2022-07-29T07:34:05;2.00;;;1.40;;
67500;SDS011;54349;52.528;19.760;2022-07-29T07:36:33;2.40;;;1.30;;
67500;SDS011;54349;52.528;19.760;2022-07-29T07:39:01;1.20;;;1.10;;
67500;SDS011;54349;52.528;19.760;2022-07-29T07:41:31;3.40;;;1.50;;
67500;SDS011;54349;52.528;19.760;2022-07-29T07:43:59;1.90;;;1.10;;
67500;SDS011;54349;52.528;19.760;2022-07-29T07:46:27;1.60;;;1.20;;
67500;SDS011;54349;52.528;19.760;2022-07-29T07:48:56;1.80;;;1.20;;
67500;SDS011;54349;52.528;19.760;2022-07-29T07:51:24;1.80;;;1.20;;
67500;SDS011;54349;52.528;19.760;2022-07-29T07:53:52;2.60;;;1.30;;
67500;SDS011;54349;52.528;19.760;2022-07-29T07:56:21;2.70;;;1.40;;
67500;SDS011;54349;52.528;19.760;2022-07-29T07:58:49;2.80;;;1.30;;
67500;SDS011;54349;52.528;19.760;2022-07-29T08:01:17;2.20;;;1.40;;
67500;SDS011;54349;52.528;19.760;2022-07-29T08:03:47;2.60;;;1.40;;
67500;SDS011;54349;52.528;19.760;2022-07-29T08:06:15;2.20;;;1.20;;
67500;SDS011;54349;52.528;19.760;2022-07-29T08:08:43;1.20;;;1.10;;
67500;SDS011;54349;52.528;19.760;2022-07-29T08:11:12;1.90;;;1.20;;
67500;SDS011;54349;52.528;19.760;2022-07-29T08:13:40;1.30;;;1.20;;
67500;SDS011;54349;52.528;19.760;2022-07-29T08:16:09;2.40;;;1.30;;
67500;SDS011;54349;52.528;19.760;2022-07-29T08:18:42;1.40;;;1.20;;
67500;SDS011;54349;52.528;19.760;2022-07-29T08:21:13;1.70;;;1.10;;
67500;SDS011;54349;52.528;19.760;2022-07-29T08:23:44;1.30;;;1.10;;
67500;SDS011;54349;52.528;19.760;2022-07-29T08:26:19;1.10;;;1.10;;
67500;SDS011;54349;52.528;19.760;2022-07-29T08:28:50;2.50;;;1.30;;
67500;SDS011;54349;52.528;19.760;2022-07-29T08:31:18;1.90;;;1.20;;
67500;SDS011;54349;52.528;19.760;2022-07-29T08:33:46;1.40;;;1.10;;
67500;SDS011;54349;52.528;19.760;2022-07-29T08:36:14;1.40;;;1.20;;
67500;SDS011;54349;52.528;19.760;2022-07-29T08:38:42;1.50;;;1.20;;
67500;SDS011;54349;52.528;19.760;2022-07-29T08:41:10;2.30;;;1.20;;
67500;SDS011;54349;52.528;19.760;2022-07-29T08:43:39;1.10;;;1.00;;
67500;SDS011;54349;52.528;19.760;2022-07-29T08:46:08;2.70;;;1.20;;
67500;SDS011;54349;52.528;19.760;2022-07-29T08:48:37;1.70;;;1.30;;
67500;SDS011;54349;52.528;19.760;2022-07-29T08:51:07;1.40;;;1.20;;
67500;SDS011;54349;52.528;19.760;2022-07-29T08:53:37;1.70;;;1.20;;
67500;SDS011;54349;52.528;19.760;2022-07-29T08:56:05;2.00;;;1.10;;
67500;SDS011;54349;52.528;19.760;2022-07-29T08:58:35;1.40;;;1.10;;
67500;SDS011;54349;52.528;19.760;2022-07-29T09:01:06;1.50;;;1.20;;
67500;SDS011;54349;52.528;19.760;2022-07-29T09:03:40;1.60;;;1.30;;
67500;SDS011;54349;52.528;19.760;2022-07-29T09:06:17;1.70;;;1.30;;
67500;SDS011;54349;52.528;19.760;2022-07-29T09:08:47;1.70;;;1.20;;
67500;SDS011;54349;52.528;19.760;2022-07-29T09:11:16;1.40;;;1.10;;
67500;SDS011;54349;52.528;19.760;2022-07-29T09:13:44;2.60;;;1.20;;
67500;SDS011;54349;52.528;19.760;2022-07-29T09:16:12;2.10;;;1.40;;
67500;SDS011;54349;52.528;19.760;2022-07-29T09:19:01;1.50;;;1.20;;
67500;SDS011;54349;52.528;19.760;2022-07-29T09:21:40;1.40;;;1.20;;
67500;SDS011;54349;52.528;19.760;2022-07-29T09:27:02;2.70;;;1.20;;
67500;SDS011;54349;52.528;19.760;2022-07-29T09:29:36;1.50;;;1.10;;
67500;SDS011;54349;52.528;19.760;2022-07-29T09:32:09;1.20;;;1.10;;
67500;SDS011;54349;52.528;19.760;2022-07-29T09:34:38;1.40;;;1.30;;
67500;SDS011;54349;52.528;19.760;2022-07-29T09:37:06;1.00;;;0.90;;
67500;SDS011;54349;52.528;19.760;2022-07-29T09:39:37;1.00;;;1.00;;
67500;SDS011;54349;52.528;19.760;2022-07-29T09:42:28;1.20;;;1.10;;
67500;SDS011;54349;52.528;19.760;2022-07-29T09:44:57;1.60;;;1.00;;
67500;SDS011;54349;52.528;19.760;2022-07-29T09:47:46;1.50;;;1.30;;
67500;SDS011;54349;52.528;19.760;2022-07-29T09:50:16;1.20;;;1.10;;
67500;SDS011;54349;52.528;19.760;2022-07-29T09:52:52;1.30;;;1.20;;
67500;SDS011;54349;52.528;19.760;2022-07-29T09:55:23;1.70;;;1.20;;
67500;SDS011;54349;52.528;19.760;2022-07-29T09:57:51;1.20;;;1.10;;
67500;SDS011;54349;52.528;19.760;2022-07-29T10:00:20;1.20;;;1.10;;
67500;SDS011;54349;52.528;19.760;2022-07-29T10:02:59;1.20;;;1.10;;
67500;SDS011;54349;52.528;19.760;2022-07-29T10:05:29;1.50;;;1.20;;
67500;SDS011;54349;52.528;19.760;2022-07-29T10:08:03;1.60;;;1.10;;
67500;SDS011;54349;52.528;19.760;2022-07-29T10:10:36;1.60;;;1.30;;
67500;SDS011;54349;52.528;19.760;2022-07-29T10:13:07;1.60;;;1.20;;
67500;SDS011;54349;52.528;19.760;2022-07-29T10:15:44;1.70;;;1.10;;
67500;SDS011;54349;52.528;19.760;2022-07-29T10:18:14;1.20;;;1.10;;
67500;SDS011;54349;52.528;19.760;2022-07-29T10:20:45;1.20;;;1.10;;
67500;SDS011;54349;52.528;19.760;2022-07-29T10:23:13;1.60;;;1.40;;
67500;SDS011;54349;52.528;19.760;2022-07-29T10:25:42;1.20;;;1.10;;
67500;SDS011;54349;52.528;19.760;2022-07-29T10:28:13;1.00;;;1.00;;
67500;SDS011;54349;52.528;19.760;2022-07-29T10:30:44;1.30;;;1.20;;
67500;SDS011;54349;52.528;19.760;2022-07-29T10:36:58;1.30;;;1.20;;
67500;SDS011;54349;52.528;19.760;2022-07-29T10:43:21;1.00;;;1.00;;
67500;SDS011;54349;52.528;19.760;2022-07-29T10:45:56;1.40;;;1.20;;
67500;SDS011;54349;52.528;19.760;2022-07-29T10:48:26;1.40;;;1.30;;
67500;SDS011;54349;52.528;19.760;2022-07-29T10:51:03;1.70;;;1.20;;
67500;SDS011;54349;52.528;19.760;2022-07-29T10:56:25;2.00;;;1.10;;
67500;SDS011;54349;52.528;19.760;2022-07-29T11:01:53;1.00;;;1.00;;
67500;SDS011;54349;52.528;19.760;2022-07-29T11:15:12;1.10;;;1.10;;
67500;SDS011;54349;52.528;19.760;2022-07-29T11:20:46;1.60;;;1.10;;
67500;SDS011;54349;52.528;19.760;2022-07-29T11:23:25;1.70;;;1.30;;
67500;SDS011;54349;52.528;19.760;2022-07-29T11:26:16;1.00;;;1.00;;
67500;SDS011;54349;52.528;19.760;2022-07-29T11:34:15;1.30;;;1.20;;
67500;SDS011;54349;52.528;19.760;2022-07-29T11:39:47;1.60;;;1.30;;
67500;SDS011;54349;52.528;19.760;2022-07-29T11:45:21;1.70;;;1.10;;
67500;SDS011;54349;52.528;19.760;2022-07-29T11:48:18;1.20;;;1.10;;
67500;SDS011;54349;52.528;19.760;2022-07-29T11:50:59;1.10;;;1.00;;
67500;SDS011;54349;52.528;19.760;2022-07-29T11:53:27;1.50;;;1.20;;
67500;SDS011;54349;52.528;19.760;2022-07-29T11:56:00;1.10;;;1.00;;
67500;SDS011;54349;52.528;19.760;2022-07-29T11:58:30;0.90;;;0.90;;
67500;SDS011;54349;52.528;19.760;2022-07-29T12:01:00;1.00;;;1.00;;
67500;SDS011;54349;52.528;19.760;2022-07-29T12:03:32;1.10;;;1.10;;
67500;SDS011;54349;52.528;19.760;2022-07-29T12:06:12;1.20;;;1.00;;
67500;SDS011;54349;52.528;19.760;2022-07-29T12:09:07;1.10;;;1.00;;
67500;SDS011;54349;52.528;19.760;2022-07-29T12:11:41;1.70;;;1.40;;
67500;SDS011;54349;52.528;19.760;2022-07-29T12:14:26;1.00;;;1.00;;
67500;SDS011;54349;52.528;19.760;2022-07-29T12:17:01;1.10;;;1.10;;
67500;SDS011;54349;52.528;19.760;2022-07-29T12:19:42;1.20;;;1.00;;
67500;SDS011;54349;52.528;19.760;2022-07-29T12:22:11;1.10;;;1.00;;
67500;SDS011;54349;52.528;19.760;2022-07-29T12:24:43;1.50;;;1.20;;
67500;SDS011;54349;52.528;19.760;2022-07-29T12:27:17;0.90;;;0.90;;
67500;SDS011;54349;52.528;19.760;2022-07-29T12:30:03;1.10;;;1.10;;
67500;SDS011;54349;52.528;19.760;2022-07-29T12:32:43;1.30;;;1.20;;
67500;SDS011;54349;52.528;19.760;2022-07-29T12:35:18;1.10;;;1.10;;
67500;SDS011;54349;52.528;19.760;2022-07-29T12:37:48;1.40;;;1.10;;
67500;SDS011;54349;52.528;19.760;2022-07-29T12:40:20;1.10;;;1.00;;
67500;SDS011;54349;52.528;19.760;2022-07-29T12:43:08;1.30;;;1.20;;
67500;SDS011;54349;52.528;19.760;2022-07-29T12:45:40;1.00;;;1.00;;
67500;SDS011;54349;52.528;19.760;2022-07-29T12:48:10;2.60;;;1.20;;
67500;SDS011;54349;52.528;19.760;2022-07-29T12:51:11;1.20;;;1.10;;
67500;SDS011;54349;52.528;19.760;2022-07-29T12:54:02;1.00;;;1.00;;
67500;SDS011;54349;52.528;19.760;2022-07-29T12:56:30;1.00;;;1.00;;
67500;SDS011;54349;52.528;19.760;2022-07-29T12:59:18;1.00;;;1.00;;
67500;SDS011;54349;52.528;19.760;2022-07-29T13:01:50;1.20;;;1.10;;
67500;SDS011;54349;52.528;19.760;2022-07-29T13:04:31;1.20;;;1.10;;
67500;SDS011;54349;52.528;19.760;2022-07-29T13:07:01;1.00;;;0.90;;
67500;SDS011;54349;52.528;19.760;2022-07-29T13:09:42;1.00;;;0.90;;
67500;SDS011;54349;52.528;19.760;2022-07-29T13:12:12;1.20;;;1.10;;
67500;SDS011;54349;52.528;19.760;2022-07-29T13:14:46;1.00;;;1.00;;
67500;SDS011;54349;52.528;19.760;2022-07-29T13:17:18;1.10;;;1.10;;
67500;SDS011;54349;52.528;19.760;2022-07-29T13:19:53;1.10;;;1.10;;
67500;SDS011;54349;52.528;19.760;2022-07-29T13:22:35;1.10;;;1.10;;
67500;SDS011;54349;52.528;19.760;2022-07-29T13:25:04;1.40;;;1.20;;
67500;SDS011;54349;52.528;19.760;2022-07-29T13:27:36;1.10;;;1.00;;
67500;SDS011;54349;52.528;19.760;2022-07-29T13:30:08;1.40;;;1.20;;
67500;SDS011;54349;52.528;19.760;2022-07-29T13:32:37;1.10;;;1.10;;
67500;SDS011;54349;52.528;19.760;2022-07-29T13:35:08;1.20;;;1.10;;
67500;SDS011;54349;52.528;19.760;2022-07-29T13:37:37;1.20;;;1.10;;
67500;SDS011;54349;52.528;19.760;2022-07-29T13:40:08;0.80;;;0.80;;
67500;SDS011;54349;52.528;19.760;2022-07-29T13:42:37;1.20;;;1.10;;
67500;SDS011;54349;52.528;19.760;2022-07-29T13:45:08;1.10;;;1.00;;
67500;SDS011;54349;52.528;19.760;2022-07-29T13:47:38;1.10;;;1.10;;
67500;SDS011;54349;52.528;19.760;2022-07-29T13:50:14;0.90;;;0.90;;
67500;SDS011;54349;52.528;19.760;2022-07-29T13:52:42;1.00;;;1.00;;
67500;SDS011;54349;52.528;19.760;2022-07-29T13:55:10;1.10;;;1.10;;
67500;SDS011;54349;52.528;19.760;2022-07-29T13:57:38;1.00;;;1.00;;
67500;SDS011;54349;52.528;19.760;2022-07-29T14:00:07;1.00;;;1.00;;
67500;SDS011;54349;52.528;19.760;2022-07-29T14:02:36;1.00;;;0.90;;
67500;SDS011;54349;52.528;19.760;2022-07-29T14:05:06;1.20;;;1.10;;
67500;SDS011;54349;52.528;19.760;2022-07-29T14:07:38;1.40;;;1.10;;
67500;SDS011;54349;52.528;19.760;2022-07-29T14:10:07;0.90;;;0.90;;
67500;SDS011;54349;52.528;19.760;2022-07-29T14:12:36;1.20;;;1.10;;
67500;SDS011;54349;52.528;19.760;2022-07-29T14:15:05;1.30;;;1.20;;
67500;SDS011;54349;52.528;19.760;2022-07-29T14:17:34;1.10;;;1.00;;
67500;SDS011;54349;52.528;19.760;2022-07-29T14:20:03;1.10;;;1.00;;
67500;SDS011;54349;52.528;19.760;2022-07-29T14:22:32;1.30;;;1.20;;
67500;SDS011;54349;52.528;19.760;2022-07-29T14:25:08;1.20;;;1.10;;
67500;SDS011;54349;52.528;19.760;2022-07-29T14:27:43;1.10;;;1.00;;
67500;SDS011;54349;52.528;19.760;2022-07-29T14:30:12;1.10;;;1.00;;
67500;SDS011;54349;52.528;19.760;2022-07-29T14:32:40;1.30;;;1.20;;
67500;SDS011;54349;52.528;19.760;2022-07-29T14:35:09;0.90;;;0.90;;
67500;SDS011;54349;52.528;19.760;2022-07-29T14:37:37;1.20;;;1.10;;
67500;SDS011;54349;52.528;19.760;2022-07-29T14:40:08;1.10;;;1.00;;
67500;SDS011;54349;52.528;19.760;2022-07-29T14:42:38;1.20;;;1.10;;
67500;SDS011;54349;52.528;19.760;2022-07-29T14:45:08;1.20;;;1.00;;
67500;SDS011;54349;52.528;19.760;2022-07-29T14:47:38;1.30;;;1.10;;
67500;SDS011;54349;52.528;19.760;2022-07-29T14:50:07;1.00;;;1.00;;
67500;SDS011;54349;52.528;19.760;2022-07-29T14:52:36;1.00;;;1.00;;
67500;SDS011;54349;52.528;19.760;2022-07-29T14:55:04;1.10;;;1.00;;
67500;SDS011;54349;52.528;19.760;2022-07-29T14:57:47;1.10;;;1.00;;
67500;SDS011;54349;52.528;19.760;2022-07-29T15:00:17;1.20;;;1.10;;
67500;SDS011;54349;52.528;19.760;2022-07-29T15:02:47;1.30;;;1.20;;
67500;SDS011;54349;52.528;19.760;2022-07-29T15:05:31;1.00;;;1.00;;
67500;SDS011;54349;52.528;19.760;2022-07-29T15:08:00;1.30;;;1.10;;
67500;SDS011;54349;52.528;19.760;2022-07-29T15:10:29;0.80;;;0.80;;
67500;SDS011;54349;52.528;19.760;2022-07-29T15:12:57;1.10;;;1.00;;
67500;SDS011;54349;52.528;19.760;2022-07-29T15:15:25;1.00;;;0.90;;
67500;SDS011;54349;52.528;19.760;2022-07-29T15:17:53;1.60;;;1.00;;
67500;SDS011;54349;52.528;19.760;2022-07-29T15:20:22;1.00;;;1.00;;
67500;SDS011;54349;52.528;19.760;2022-07-29T15:22:54;1.00;;;1.00;;
67500;SDS011;54349;52.528;19.760;2022-07-29T15:25:24;1.10;;;1.10;;
67500;SDS011;54349;52.528;19.760;2022-07-29T15:27:55;0.90;;;0.90;;
67500;SDS011;54349;52.528;19.760;2022-07-29T15:30:30;1.10;;;1.00;;
67500;SDS011;54349;52.528;19.760;2022-07-29T15:33:02;1.00;;;1.00;;
67500;SDS011;54349;52.528;19.760;2022-07-29T15:35:31;1.20;;;1.10;;
67500;SDS011;54349;52.528;19.760;2022-07-29T15:38:07;1.00;;;1.00;;
67500;SDS011;54349;52.528;19.760;2022-07-29T15:40:38;1.70;;;1.20;;
67500;SDS011;54349;52.528;19.760;2022-07-29T15:43:11;0.80;;;0.80;;
67500;SDS011;54349;52.528;19.760;2022-07-29T15:45:41;1.00;;;1.00;;
67500;SDS011;54349;52.528;19.760;2022-07-29T15:48:33;1.10;;;1.10;;
67500;SDS011;54349;52.528;19.760;2022-07-29T15:51:06;1.30;;;1.10;;